Time;durP1;ratioP1;P1;durP2;ratioP2;P2;SDS_P1;SDS_P2;PMS_P1;PMS_P2;Temp;Humidity;BMP_temperature;BMP_pressure;BME280_temperature;BME280_humidity;BME280_pressure;Samples;Min_cycle;Max_cycle;Signal;HPM_P1;HPM_P2
2022/04/17 00:00:21;;;;;;;6.95;2.60;;;8.10;70.30;;;8.11;52.77;102455.38;5188130;28;20050;-72
2022/04/17 00:02:53;;;;;;;5.30;2.58;;;8.10;72.10;;;8.05;53.36;102460.13;5188276;28;20398;-74
2022/04/17 00:05:25;;;;;;;5.80;2.58;;;8.20;77.20;;;8.02;53.63;102452.09;5188588;28;20056;-72
2022/04/17 00:07:57;;;;;;;8.05;2.85;;;8.00;71.50;;;7.97;53.80;102450.91;5188370;28;20107;-73
2022/04/17 00:10:30;;;;;;;5.15;2.90;;;8.00;71.60;;;7.90;53.58;102452.16;5188470;28;20046;-72
2022/04/17 00:13:01;;;;;;;5.82;2.80;;;7.90;71.40;;;7.85;53.69;102449.22;5187516;28;20046;-74
2022/04/17 00:15:35;;;;;;;7.15;3.00;;;7.80;71.50;;;7.82;53.59;102445.50;5188437;28;20483;-73
2022/04/17 00:18:08;;;;;;;5.72;3.17;;;7.80;71.50;;;7.79;53.54;102443.59;5188543;28;20449;-73
2022/04/17 00:20:40;;;;;;;4.88;2.67;;;7.80;71.20;;;7.78;53.20;102451.28;5187679;28;20046;-72
2022/04/17 00:23:12;;;;;;;7.07;2.78;;;7.80;71.20;;;7.76;53.27;102437.25;5187643;28;20046;-73
2022/04/17 00:25:44;;;;;;;4.32;2.53;;;7.80;71.60;;;7.72;53.88;102436.16;5187676;28;20068;-74
2022/04/17 00:28:16;;;;;;;4.47;2.42;;;7.70;71.90;;;7.68;53.63;102447.09;5187940;28;20042;-73
2022/04/17 00:30:50;;;;;;;7.47;2.50;;;7.70;71.80;;;7.64;53.31;102436.41;5187993;28;20046;-73
2022/04/17 00:33:22;;;;;;;4.47;2.88;;;7.60;71.50;;;7.61;52.93;102444.84;5187534;28;20046;-74
2022/04/17 00:35:54;;;;;;;7.25;2.60;;;7.60;70.90;;;7.59;53.06;102439.56;5188003;28;20056;-72
2022/04/17 00:38:26;;;;;;;6.53;3.35;;;7.60;71.50;;;7.56;53.35;102441.00;5188239;28;20056;-74
2022/04/17 00:40:57;;;;;;;5.88;2.47;;;7.60;72.20;;;7.51;53.91;102434.59;5187666;28;20096;-73
2022/04/17 00:43:32;;;;;;;5.55;2.90;;;7.50;72.50;;;7.47;53.98;102425.69;5189637;28;20045;-73
2022/04/17 00:46:05;;;;;;;4.35;2.30;;;7.50;72.70;;;7.44;54.91;102429.75;5187853;28;20053;-72
2022/04/17 00:48:37;;;;;;;6.55;3.35;;;7.50;73.50;;;7.39;55.01;102426.81;5187570;28;20056;-72
2022/04/17 00:51:10;;;;;;;6.55;2.90;;;7.40;84.40;;;7.38;55.49;102426.72;5187335;28;20056;-72
2022/04/17 00:53:45;;;;;;;7.50;3.15;;;7.50;78.30;;;7.34;55.50;102426.47;5187011;28;20060;-73
2022/04/17 00:56:17;;;;;;;6.53;2.83;;;7.40;75.40;;;7.31;56.39;102423.66;5187947;28;20046;-73
2022/04/17 00:58:49;;;;;;;6.95;2.85;;;7.30;75.80;;;7.28;56.94;102422.53;5187234;28;20069;-71
2022/04/17 01:01:23;;;;;;;7.53;2.88;;;7.30;76.60;;;7.23;57.26;102416.97;5190065;28;20046;-72
2022/04/17 01:03:55;;;;;;;6.18;3.28;;;7.30;77.10;;;7.18;57.53;102407.09;5187050;28;20077;-73
2022/04/17 01:06:28;;;;;;;5.25;2.72;;;7.20;77.90;;;7.15;57.88;102412.03;5186671;28;20049;-72
2022/04/17 01:09:01;;;;;;;5.85;3.03;;;7.20;78.60;;;7.10;58.15;102409.09;5186283;28;20050;-73
2022/04/17 01:11:33;;;;;;;6.13;3.20;;;7.10;79.10;;;7.06;58.19;102412.25;5186980;28;20103;-72
2022/04/17 01:14:07;;;;;;;5.93;2.92;;;7.10;79.90;;;7.01;58.55;102408.41;5187098;28;20050;-72
2022/04/17 01:16:41;;;;;;;5.53;3.00;;;7.10;80.30;;;6.97;59.28;102411.56;5187396;28;20046;-74
2022/04/17 01:19:13;;;;;;;5.03;2.83;;;7.10;81.20;;;6.96;58.76;102405.47;5186735;28;20129;-72
2022/04/17 01:21:49;;;;;;;5.78;2.83;;;7.00;82.00;;;6.92;59.50;102397.38;5188306;28;20050;-73
2022/04/17 01:27:10;;;;;;;4.45;2.58;;;6.90;83.10;;;6.86;59.26;102394.31;5186681;28;20050;-73
2022/04/17 01:29:42;;;;;;;5.20;2.97;;;6.90;84.10;;;6.83;59.67;102396.66;5186464;28;20056;-73
2022/04/17 01:32:15;;;;;;;5.28;2.90;;;6.90;84.60;;;6.79;59.85;102401.63;5185897;28;20524;-73
2022/04/17 01:34:48;;;;;;;4.75;3.00;;;6.80;85.60;;;6.76;60.29;102401.38;5186606;28;20046;-72
2022/04/17 01:37:21;;;;;;;4.40;3.13;;;6.80;86.30;;;6.73;60.41;102401.16;5186889;28;20487;-72
2022/04/17 01:39:53;;;;;;;4.82;2.67;;;6.80;87.30;;;6.69;60.19;102404.28;5188176;28;20073;-72
2022/04/17 01:42:25;;;;;;;6.32;2.88;;;6.70;88.30;;;6.65;60.49;102402.28;5185559;28;20507;-72
2022/04/17 01:44:57;;;;;;;5.75;2.80;;;6.70;89.50;;;6.61;61.17;102402.81;5186356;28;20054;-73
2022/04/17 01:47:31;;;;;;;5.85;2.80;;;6.70;90.40;;;6.57;61.20;102403.34;5185994;28;20050;-72
2022/04/17 01:50:03;;;;;;;6.07;2.78;;;6.70;90.80;;;6.53;61.27;102409.13;5186284;28;20128;-72
2022/04/17 01:52:37;;;;;;;4.90;2.70;;;6.60;91.40;;;6.48;62.02;102397.50;5185809;28;20052;-72
2022/04/17 01:55:09;;;;;;;5.95;2.90;;;6.60;92.00;;;6.43;61.69;102394.53;5185895;28;20060;-72
2022/04/17 01:57:41;;;;;;;5.80;2.83;;;6.50;92.50;;;6.39;62.34;102395.09;5186617;28;20399;-74
2022/04/17 02:00:14;;;;;;;6.75;2.90;;;6.50;93.40;;;6.36;62.51;102396.53;5188597;28;20049;-72
2022/04/17 02:02:46;;;;;;;5.53;2.58;;;6.50;93.70;;;6.35;62.77;102390.47;5185519;28;20046;-74
2022/04/17 02:05:19;;;;;;;4.82;2.70;;;6.40;94.20;;;6.33;62.33;102385.97;5185672;28;20050;-73
2022/04/17 02:07:52;;;;;;;4.13;2.75;;;6.40;94.40;;;6.33;62.70;102375.59;5185978;28;20052;-71
2022/04/17 02:10:24;;;;;;;5.88;2.70;;;6.40;94.80;;;6.34;62.67;102372.22;5186170;28;20048;-71
2022/04/17 02:12:56;;;;;;;5.45;2.75;;;6.40;94.90;;;6.34;62.25;102365.34;5186008;28;20085;-74
2022/04/17 02:15:28;;;;;;;4.30;2.95;;;6.40;95.00;;;6.35;62.03;102372.31;5186007;28;20065;-73
2022/04/17 02:18:00;;;;;;;5.97;3.10;;;6.40;94.80;;;6.35;61.84;102376.59;5188461;28;20414;-72
2022/04/17 02:20:32;;;;;;;4.85;2.83;;;6.40;95.40;;;6.34;61.78;102364.44;5184492;28;20050;-74
2022/04/17 02:23:06;;;;;;;5.47;3.08;;;6.40;95.60;;;6.30;62.21;102373.66;5185368;28;20052;-74
2022/04/17 02:25:38;;;;;;;6.22;2.92;;;6.40;95.70;;;6.27;61.63;102375.13;5185500;28;20052;-73
2022/04/17 02:28:10;;;;;;;6.28;3.25;;;6.40;95.60;;;6.23;62.54;102374.88;5185258;28;20045;-72
2022/04/17 02:30:43;;;;;;;5.57;3.30;;;6.30;96.20;;;6.21;62.93;102367.78;5185308;28;20045;-72
2022/04/17 02:33:15;;;;;;;5.10;2.45;;;6.30;96.40;;;6.20;62.51;102369.47;5185234;28;20056;-72
2022/04/17 02:35:47;;;;;;;5.53;3.03;;;6.30;96.40;;;6.15;62.61;102365.63;5185591;28;20045;-72
2022/04/17 02:38:20;;;;;;;5.85;2.85;;;6.20;96.30;;;6.16;62.00;102370.00;5187635;28;20485;-72
2022/04/17 02:40:53;;;;;;;5.07;2.70;;;6.20;96.40;;;6.18;62.02;102364.94;5184805;28;20041;-73
2022/04/17 02:43:25;;;;;;;4.32;2.67;;;6.30;96.20;;;6.20;61.65;102372.06;5184934;28;20054;-72
2022/04/17 02:45:57;;;;;;;5.10;2.22;;;6.30;95.70;;;6.21;61.46;102370.38;5185041;28;20148;-72
2022/04/17 02:48:28;;;;;;;4.00;2.50;;;6.30;95.90;;;6.16;61.44;102359.66;5185092;28;20056;-73
2022/04/17 02:51:00;;;;;;;3.63;2.55;;;6.20;95.90;;;6.12;61.63;102357.59;5185025;28;20041;-75
2022/04/17 02:53:33;;;;;;;4.15;2.63;;;6.20;96.00;;;6.06;61.69;102348.44;5184634;28;20050;-73
2022/04/17 02:56:05;;;;;;;6.32;2.60;;;6.20;96.20;;;6.03;62.21;102349.13;5188073;28;20136;-73
2022/04/17 02:58:37;;;;;;;5.15;2.50;;;6.10;96.70;;;6.01;62.82;102339.44;5185064;28;20049;-74
2022/04/17 03:06:49;;;;;;;4.00;2.78;;;6.00;97.30;;;5.86;62.91;102339.09;5184770;28;20100;-74
2022/04/17 03:09:22;;;;;;;5.70;2.90;;;6.00;97.50;;;5.79;63.27;102348.06;5185049;28;20050;-72
2022/04/17 03:11:54;;;;;;;4.95;2.50;;;5.90;97.70;;;5.76;62.63;102346.94;5184268;28;20293;-73
2022/04/17 03:14:26;;;;;;;7.22;2.55;;;5.90;97.30;;;5.72;62.85;102346.69;5185995;28;20050;-73
2022/04/17 03:16:58;;;;;;;5.22;2.75;;;5.80;97.30;;;5.66;62.78;102335.84;5186590;28;20049;-72
2022/04/17 03:19:30;;;;;;;2.65;2.25;;;5.80;97.50;;;5.64;63.34;102341.69;5184680;28;20140;-72
2022/04/17 03:22:02;;;;;;;4.35;2.45;;;5.80;97.90;;;5.62;63.31;102333.81;5184367;28;20398;-72
2022/04/17 03:24:36;;;;;;;4.53;2.60;;;5.70;98.00;;;5.66;63.64;102334.94;5184422;28;20053;-72
2022/04/17 03:27:08;;;;;;;3.33;2.30;;;5.70;98.20;;;5.69;63.40;102335.22;5184605;28;20056;-73
2022/04/17 03:29:40;;;;;;;4.80;2.50;;;5.80;98.20;;;5.71;63.43;102323.28;5184532;28;20136;-72
2022/04/17 03:32:12;;;;;;;4.63;2.90;;;5.80;98.50;;;5.70;63.61;102335.31;5181259;28;20042;-72
2022/04/17 03:34:44;;;;;;;5.70;2.60;;;5.80;98.30;;;5.72;62.96;102325.97;5187428;28;20052;-71
2022/04/17 03:37:16;;;;;;;4.97;2.70;;;5.80;98.20;;;5.73;62.80;102322.59;5182499;28;20054;-73
2022/04/17 03:39:49;;;;;;;3.95;2.55;;;5.80;98.00;;;5.82;61.48;102329.31;5183928;28;20046;-72
2022/04/17 03:42:21;;;;;;;8.35;2.63;;;5.90;96.80;;;5.90;60.55;102329.13;5183888;28;20517;-73
2022/04/17 03:44:54;;;;;;;3.85;2.33;;;6.00;96.10;;;5.99;60.14;102331.53;5179299;28;20049;-72
2022/04/17 03:47:26;;;;;;;4.50;2.55;;;6.00;95.10;;;6.06;59.58;102328.63;5184582;28;20052;-73
2022/04/17 03:49:58;;;;;;;4.72;2.53;;;6.10;94.90;;;6.13;59.75;102336.13;5184719;28;20074;-72
2022/04/17 03:52:39;;;;;;;5.45;2.22;;;6.20;94.90;;;6.15;59.61;102338.81;5184909;28;20045;-74
2022/04/17 03:55:14;;;;;;;5.30;2.38;;;6.20;95.30;;;6.10;60.12;102330.69;5185167;28;20050;-72
2022/04/17 03:57:46;;;;;;;4.00;1.95;;;6.20;95.60;;;6.06;59.65;102338.09;5184173;28;20115;-72
2022/04/17 04:00:18;;;;;;;5.93;3.00;;;6.20;95.30;;;6.01;60.72;102330.00;5183816;28;20058;-72
2022/04/17 04:02:52;;;;;;;3.28;2.08;;;6.10;95.80;;;5.97;60.73;102335.69;5182341;28;20042;-72
2022/04/17 04:05:24;;;;;;;5.20;2.78;;;6.10;95.90;;;5.91;60.63;102333.53;5183788;28;20050;-72
2022/04/17 04:07:56;;;;;;;4.10;2.50;;;6.00;96.10;;;5.87;61.50;102335.75;5184263;28;20053;-72
2022/04/17 04:10:29;;;;;;;5.32;2.38;;;6.00;96.40;;;5.84;61.15;102340.69;5184069;28;20525;-72
2022/04/17 04:13:03;;;;;;;5.18;2.50;;;5.90;96.40;;;5.78;61.57;102341.09;5186607;28;20067;-73
2022/04/17 04:15:35;;;;;;;4.53;2.72;;;5.90;96.60;;;5.76;62.17;102346.94;5184078;28;20141;-72
2022/04/17 04:18:07;;;;;;;3.40;2.72;;;5.90;97.00;;;5.69;62.37;102340.38;5183016;28;20050;-72
2022/04/17 04:20:39;;;;;;;4.10;2.35;;;5.80;97.60;;;5.65;63.05;102348.66;5279329;22;20056;-69
2022/04/17 04:23:11;;;;;;;6.10;2.78;;;5.80;97.90;;;5.60;63.31;102350.88;5212820;28;20059;-70
2022/04/17 04:25:44;;;;;;;5.75;2.40;;;5.70;98.30;;;5.56;63.33;102348.84;5225208;28;20053;-70
2022/04/17 04:28:33;;;;;;;4.82;2.42;;;5.70;98.50;;;5.50;64.02;102337.13;5225053;28;20412;-70
2022/04/17 04:31:08;;;;;;;5.43;2.47;;;5.60;98.60;;;5.48;63.70;102338.66;5224820;28;20052;-70
2022/04/17 04:33:41;;;;;;;4.55;2.50;;;5.60;98.90;;;5.44;64.46;102338.44;5224851;28;20500;-70
2022/04/17 04:36:14;;;;;;;6.20;2.70;;;5.60;99.10;;;5.40;64.26;102332.88;5224657;28;20053;-70
2022/04/17 04:38:45;;;;;;;3.40;2.88;;;5.50;98.90;;;5.40;64.18;102335.47;5225042;28;20383;-71
2022/04/17 04:41:19;;;;;;;6.43;2.97;;;5.50;98.90;;;5.43;64.17;102340.91;5224432;28;20045;-71
2022/04/17 04:43:52;;;;;;;5.55;2.70;;;5.50;98.90;;;5.45;63.95;102328.97;5226772;28;20049;-70
2022/04/17 04:46:23;;;;;;;5.28;2.97;;;5.60;98.80;;;5.45;63.06;102328.97;5228344;28;20083;-70
2022/04/17 04:51:44;;;;;;;3.80;2.50;;;5.60;98.30;;;5.49;63.16;102335.31;5228197;28;20543;-71
2022/04/17 04:54:16;;;;;;;4.82;2.38;;;5.60;98.40;;;5.46;63.21;102335.97;5228072;28;20055;-70
2022/04/17 04:56:49;;;;;;;8.27;2.97;;;5.60;98.30;;;5.47;63.70;102337.75;5228367;28;20397;-69
2022/04/17 04:59:22;;;;;;;4.18;2.38;;;5.60;98.60;;;5.47;63.84;102342.94;5228765;28;20044;-70
2022/04/17 05:01:55;;;;;;;5.80;2.63;;;5.60;98.80;;;5.45;63.94;102340.22;5228188;28;20132;-69
2022/04/17 05:04:29;;;;;;;4.07;2.38;;;5.60;98.90;;;5.51;64.08;102333.75;5227927;28;20053;-70
2022/04/17 05:07:01;;;;;;;5.20;2.60;;;5.60;98.90;;;5.58;64.24;102344.69;5228353;28;20052;-70
2022/04/17 05:09:33;;;;;;;5.78;2.25;;;5.70;99.20;;;5.65;63.88;102336.63;5228350;28;20508;-71
2022/04/17 05:12:07;;;;;;;5.00;2.45;;;5.70;99.10;;;5.74;63.87;102339.06;5227951;28;20482;-69
2022/04/17 05:14:41;;;;;;;3.40;2.53;;;5.80;99.00;;;5.78;62.78;102328.16;5227676;28;20045;-69
2022/04/17 05:17:13;;;;;;;6.82;2.75;;;5.90;98.60;;;5.87;62.86;102330.56;5228060;28;20401;-72
2022/04/17 05:19:45;;;;;;;3.58;2.40;;;5.90;97.90;;;5.96;61.67;102329.63;5227705;28;20063;-70
2022/04/17 05:22:19;;;;;;;6.25;2.38;;;6.00;97.70;;;6.02;61.54;102326.63;5228180;28;20044;-70
2022/04/17 05:24:51;;;;;;;3.20;2.17;;;6.10;97.20;;;6.06;60.77;102326.03;5227640;28;20049;-71
2022/04/17 05:27:25;;;;;;;4.93;2.22;;;6.10;96.60;;;6.16;60.94;102320.81;5227818;28;20045;-71
2022/04/17 05:29:57;;;;;;;4.53;2.03;;;6.20;96.70;;;7.08;61.10;102318.22;5227610;28;20049;-70
2022/04/17 05:32:29;;;;;;;3.55;2.22;;;6.60;98.20;;;8.83;58.57;102323.50;5226683;28;20051;-70
2022/04/17 05:35:01;;;;;;;4.95;2.15;;;7.50;98.60;;;10.65;53.46;102323.59;5227213;28;20059;-70
2022/04/17 05:37:33;;;;;;;3.15;2.45;;;8.80;96.30;;;12.22;48.54;102320.19;5227445;28;20141;-71
2022/04/17 05:40:07;;;;;;;4.40;2.13;;;10.20;92.10;;;13.50;45.08;102324.84;5227047;28;20055;-69
2022/04/17 05:42:40;;;;;;;5.78;2.28;;;11.40;85.90;;;14.43;41.99;102321.19;5226911;28;20051;-71
2022/04/17 05:45:12;;;;;;;3.38;1.90;;;12.40;78.00;;;15.16;38.96;102331.28;5227220;28;20049;-72
2022/04/17 05:47:45;;;;;;;4.95;2.20;;;13.20;70.40;;;15.69;37.04;102332.50;5227045;28;20049;-72
2022/04/17 05:50:17;;;;;;;3.42;2.03;;;13.90;65.80;;;16.17;36.02;102333.47;5226887;28;20059;-70
2022/04/17 05:52:49;;;;;;;2.83;2.13;;;14.40;63.10;;;16.50;34.92;102325.88;5224678;28;20045;-71
2022/04/17 05:55:21;;;;;;;5.55;2.35;;;14.90;60.60;;;16.71;34.15;102332.75;5223197;28;20055;-70
2022/04/17 05:57:55;;;;;;;4.50;2.25;;;15.30;58.40;;;16.84;33.87;102324.41;5225761;28;20053;-69
2022/04/17 06:00:27;;;;;;;5.00;2.38;;;15.60;57.40;;;17.01;33.15;102320.56;5226594;28;20048;-70
2022/04/17 06:02:59;;;;;;;2.85;2.22;;;15.90;56.00;;;17.27;32.50;102325.78;5226198;28;20531;-69
2022/04/17 06:05:31;;;;;;;4.93;2.13;;;16.10;55.00;;;17.48;32.14;102326.47;5227515;28;20140;-68
2022/04/17 06:08:04;;;;;;;4.25;2.42;;;16.40;54.10;;;17.74;32.23;102336.94;5227374;28;20049;-68
2022/04/17 06:10:36;;;;;;;4.13;2.17;;;16.70;53.80;;;17.82;31.62;102327.50;5227321;28;20391;-68
2022/04/17 06:13:09;;;;;;;3.60;1.98;;;16.90;52.80;;;17.80;31.20;102331.81;5226394;28;20044;-70
2022/04/17 06:15:41;;;;;;;3.65;2.00;;;17.10;51.80;;;17.70;31.00;102321.84;5227203;28;20063;-67
2022/04/17 06:18:13;;;;;;;4.10;2.25;;;17.20;51.00;;;17.73;31.59;102325.47;5226746;28;20045;-69
2022/04/17 06:20:45;;;;;;;2.88;2.10;;;17.10;51.70;;;17.85;30.96;102323.22;5226713;28;20412;-70
2022/04/17 06:23:17;;;;;;;2.63;1.90;;;17.10;51.00;;;17.89;30.83;102329.47;5225997;28;20053;-69
2022/04/17 06:25:49;;;;;;;3.33;1.90;;;17.30;50.80;;;17.75;30.72;102317.63;5226675;28;20171;-65
2022/04/17 06:28:23;;;;;;;2.53;1.75;;;17.20;50.40;;;17.31;30.69;102318.03;5225770;28;20464;-70
2022/04/17 06:30:55;;;;;;;2.63;1.63;;;17.10;49.80;;;17.05;31.47;102311.94;5226264;28;20044;-69
2022/04/17 06:33:27;;;;;;;4.40;1.73;;;16.80;50.20;;;16.88;31.75;102315.75;5225551;28;20571;-69
2022/04/17 06:35:59;;;;;;;2.75;1.70;;;16.80;50.30;;;16.93;31.69;102310.63;5226696;28;20049;-69
2022/04/17 06:38:31;;;;;;;3.28;2.00;;;16.70;50.40;;;16.75;31.63;102308.28;5225046;28;20072;-71
2022/04/17 06:41:03;;;;;;;2.80;1.67;;;16.60;50.20;;;16.80;31.71;102311.97;5228693;28;20144;-68
2022/04/17 06:43:36;;;;;;;2.60;1.63;;;16.60;50.40;;;16.88;31.31;102307.84;5225559;28;20051;-70
2022/04/17 06:46:08;;;;;;;3.97;1.67;;;16.50;50.00;;;16.63;31.74;102303.50;5225901;28;20088;-71
2022/04/17 06:48:40;;;;;;;3.33;1.70;;;16.40;50.40;;;16.68;32.06;102293.97;5223721;28;20141;-69
2022/04/17 06:51:12;;;;;;;3.20;1.67;;;16.40;50.70;;;16.79;31.47;102303.19;5222524;28;20048;-69
2022/04/17 06:53:44;;;;;;;2.65;1.70;;;16.50;50.10;;;17.03;31.75;102299.56;5226001;28;20136;-69
2022/04/17 06:56:18;;;;;;;4.30;2.10;;;16.60;50.70;;;17.10;30.61;102293.66;5226217;28;20059;-70
2022/04/17 06:58:51;;;;;;;1.92;1.50;;;16.70;49.40;;;16.81;31.29;102290.94;5226084;28;20053;-68
2022/04/17 07:01:24;;;;;;;3.15;1.55;;;16.60;49.60;;;16.78;31.18;102297.88;5224679;28;20051;-67
2022/04/17 07:03:56;;;;;;;2.70;1.70;;;16.50;49.50;;;16.84;32.00;102287.53;5224275;28;20490;-65
2022/04/17 07:06:28;;;;;;;2.85;1.60;;;16.60;50.90;;;17.21;33.14;102296.59;5224931;28;20413;-65
2022/04/17 07:08:59;;;;;;;2.65;1.50;;;16.90;52.90;;;17.27;31.74;102286.25;5224907;28;20055;-66
2022/04/17 07:11:31;;;;;;;3.28;1.95;;;17.10;50.50;;;17.13;31.78;102291.09;5224131;28;20045;-65
2022/04/17 07:14:06;;;;;;;2.47;1.58;;;17.10;50.20;;;17.17;32.12;102286.81;5224952;28;20045;-66
2022/04/17 07:16:38;;;;;;;2.35;1.40;;;17.20;50.60;;;17.10;31.93;102301.56;5225092;28;20056;-66
2022/04/17 07:19:10;;;;;;;2.67;2.05;;;17.10;50.30;;;16.91;32.34;102286.88;5225428;28;20477;-66
2022/04/17 07:21:42;;;;;;;4.60;1.60;;;17.00;50.30;;;17.08;31.52;102300.59;5224945;28;20092;-66
2022/04/17 07:24:14;;;;;;;2.72;1.65;;;17.10;49.50;;;17.54;31.07;102292.38;5225373;28;20417;-65
2022/04/17 07:26:47;;;;;;;1.85;1.42;;;17.30;49.40;;;17.75;30.87;102293.91;5225313;28;20053;-66
2022/04/17 07:29:22;;;;;;;2.55;1.95;;;17.50;49.00;;;17.75;30.25;102297.44;5225637;28;20084;-65
2022/04/17 07:31:54;;;;;;;4.03;1.95;;;17.50;48.30;;;18.01;30.24;102289.38;5225117;28;20060;-65
2022/04/17 07:34:26;;;;;;;3.25;1.67;;;17.70;48.40;;;18.36;29.58;102271.84;5225240;28;20048;-65
2022/04/17 07:36:59;;;;;;;1.67;1.40;;;18.00;48.00;;;18.76;29.21;102276.41;5225377;28;20049;-66
2022/04/17 07:39:31;;;;;;;2.58;1.50;;;18.30;47.80;;;19.17;29.09;102264.19;5225363;28;20520;-65
2022/04/17 07:42:04;;;;;;;3.40;1.70;;;18.60;47.70;;;19.51;28.16;102271.13;5225009;28;20045;-66
2022/04/17 07:44:37;;;;;;;2.97;1.40;;;18.90;46.90;;;19.65;28.42;102279.38;5224253;28;20041;-66
2022/04/17 07:47:09;;;;;;;2.35;1.40;;;19.00;46.90;;;19.78;27.89;102276.13;5224936;28;20083;-66
2022/04/17 07:49:41;;;;;;;2.63;1.48;;;19.10;46.40;;;19.58;27.90;102272.16;5225626;28;20515;-66
2022/04/17 07:52:13;;;;;;;3.15;1.83;;;19.00;46.20;;;19.66;27.82;102267.94;5224555;28;20056;-66
2022/04/17 07:54:47;;;;;;;2.38;1.75;;;18.90;46.10;;;19.99;28.26;102264.16;5225269;28;20049;-65
2022/04/17 07:57:19;;;;;;;2.95;1.63;;;19.00;47.00;;;20.24;27.05;102266.41;5225155;28;20509;-65
2022/04/17 07:59:55;;;;;;;5.55;1.85;;;19.20;45.90;;;20.02;27.74;102264.25;5225337;28;20048;-66
2022/04/17 08:02:39;;;;;;;1.95;1.73;;;19.20;46.20;;;20.28;27.09;102270.91;5224768;28;20048;-66
2022/04/17 08:05:11;;;;;;;1.73;1.38;;;19.20;45.80;;;20.21;26.83;102269.03;5223758;28;20131;-68
2022/04/17 08:07:43;;;;;;;1.98;1.50;;;19.20;45.40;;;20.31;27.07;102270.06;5224961;28;20281;-66
2022/04/17 08:10:15;;;;;;;3.80;1.67;;;19.20;45.90;;;20.59;26.00;102259.09;5225303;28;20045;-66
2022/04/17 08:12:49;;;;;;;1.92;1.48;;;19.30;44.70;;;21.21;25.54;102265.38;5225379;28;20290;-66
2022/04/17 08:15:23;;;;;;;3.58;2.13;;;19.60;44.80;;;21.98;24.83;102256.66;5225000;28;20053;-66
2022/04/17 08:17:55;;;;;;;2.33;1.40;;;19.90;44.40;;;22.82;24.18;102262.75;5225468;28;20409;-67
2022/04/17 08:20:27;;;;;;;1.70;1.40;;;20.30;44.50;;;23.34;22.89;102261.34;5228258;28;20744;-66
2022/04/17 08:23:00;;;;;;;2.40;1.52;;;20.60;43.10;;;22.91;23.43;102255.78;5228895;28;20132;-66
2022/04/17 08:25:32;;;;;;;3.30;1.52;;;20.60;43.50;;;23.46;23.13;102256.06;5227794;28;20486;-68
2022/04/17 08:28:05;;;;;;;1.60;1.30;;;20.70;43.20;;;24.64;21.98;102254.63;5229372;28;20084;-66
2022/04/17 08:30:39;;;;;;;3.15;1.35;;;21.10;43.00;;;25.23;21.36;102250.09;5229640;28;20045;-66
2022/04/17 08:33:11;;;;;;;2.67;1.40;;;21.50;42.50;;;25.56;20.55;102254.47;5228877;28;20486;-68
2022/04/17 08:35:44;;;;;;;1.60;1.25;;;21.80;42.00;;;24.22;21.69;102244.81;5229361;28;20049;-67
2022/04/17 08:38:19;;;;;;;2.92;1.33;;;21.50;41.60;;;24.60;21.54;102231.53;5223720;28;20076;-66
2022/04/17 08:40:51;;;;;;;2.30;1.20;;;21.50;41.80;;;25.25;20.83;102234.13;5218252;28;20092;-66
2022/04/17 08:43:24;;;;;;;2.55;1.40;;;21.90;41.60;;;25.93;20.80;102231.13;5220694;28;20081;-67
2022/04/17 08:45:57;;;;;;;2.38;1.40;;;22.20;41.40;;;26.52;19.88;102226.28;5226611;28;20049;-66
2022/04/17 08:48:29;;;;;;;2.85;1.20;;;22.80;40.60;;;26.83;19.61;102218.84;5228923;28;20057;-66
2022/04/17 08:51:02;;;;;;;2.10;1.50;;;23.20;40.20;;;26.57;19.88;102216.44;5229283;28;20390;-65
2022/04/17 08:53:35;;;;;;;1.63;1.15;;;23.20;40.20;;;27.67;18.65;102217.00;5228800;28;20048;-65
2022/04/17 08:56:07;;;;;;;1.95;1.25;;;23.80;39.30;;;28.42;18.13;102216.75;5228948;28;20052;-65
2022/04/17 08:58:40;;;;;;;2.25;1.20;;;24.40;39.00;;;28.45;18.17;102215.84;5228541;28;20064;-65
2022/04/17 09:01:18;;;;;;;1.85;1.23;;;24.60;38.20;;;28.05;18.40;102211.97;5227911;28;20051;-64
2022/04/17 09:03:50;;;;;;;2.75;1.38;;;24.60;38.30;;;26.84;18.66;102204.56;5227824;28;20482;-65
2022/04/17 09:06:23;;;;;;;2.13;1.23;;;24.20;37.50;;;26.16;19.58;102214.06;5227931;28;20409;-64
2022/04/17 09:09:03;;;;;;;2.60;1.38;;;23.80;38.30;;;26.13;19.43;102198.03;5228117;28;20051;-64
2022/04/17 09:11:36;;;;;;;2.40;1.10;;;23.70;38.50;;;24.73;20.32;102204.84;5227870;28;20391;-63
2022/04/17 09:14:08;;;;;;;4.85;1.63;;;23.10;38.30;;;24.86;21.01;102196.84;5228176;28;20053;-64
2022/04/17 09:16:42;;;;;;;2.45;1.30;;;23.10;39.20;;;23.54;22.21;102205.56;5228051;28;20136;-64
2022/04/17 09:19:15;;;;;;;3.75;1.45;;;22.50;39.70;;;23.28;21.96;102193.06;5228230;28;20391;-65
2022/04/17 09:21:55;;;;;;;3.67;1.30;;;22.30;39.50;;;22.76;22.76;102191.84;5227450;28;20143;-64
2022/04/17 09:24:27;;;;;;;1.58;1.30;;;22.00;39.80;;;22.34;22.84;102187.97;5227869;28;20048;-64
2022/04/17 09:27:00;;;;;;;3.05;1.40;;;21.80;39.70;;;21.55;23.28;102193.34;5227963;28;20052;-67
2022/04/17 09:29:35;;;;;;;4.15;1.60;;;21.40;39.80;;;20.77;24.35;102191.38;5227458;28;20051;-66
2022/04/17 09:32:11;;;;;;;1.48;1.33;;;20.80;40.50;;;20.62;24.60;102178.81;5227780;28;20045;-66
2022/04/17 09:34:45;;;;;;;3.55;1.52;;;20.50;41.00;;;20.76;24.81;102184.31;5207907;28;20059;-66
2022/04/17 09:37:19;;;;;;;2.70;1.40;;;20.50;41.80;;;20.60;24.22;102177.88;5183872;28;20477;-65
2022/04/17 09:39:53;;;;;;;;;;;20.30;40.90;;;20.45;24.94;102175.00;5228386;28;20155;-62
2022/04/17 09:42:29;;;;;;;3.85;1.55;;;20.10;41.80;;;20.38;25.42;102171.31;5218852;28;19921;-61
2022/04/17 09:45:01;;;;;;;2.42;1.23;;;20.00;42.40;;;20.49;25.95;102160.94;5222505;28;20498;-63
2022/04/17 09:47:34;;;;;;;1.40;1.30;;;20.00;42.90;;;20.68;25.89;102160.34;5217979;28;20053;-62
2022/04/17 09:50:08;;;;;;;2.30;1.23;;;20.20;43.10;;;20.52;25.92;102160.97;5222381;28;20045;-63
2022/04/17 09:52:42;;;;;;;3.38;1.50;;;20.10;42.80;;;20.58;25.43;102155.78;5224470;28;20387;-63
2022/04/17 09:55:14;;;;;;;2.95;1.42;;;20.10;42.30;;;20.51;26.04;102138.00;5226133;28;20041;-63
2022/04/17 09:57:57;;;;;;;1.67;1.20;;;20.10;43.20;;;20.46;25.98;102137.03;5226709;28;20123;-63
2022/04/17 10:00:42;;;;;;;2.72;1.27;;;20.00;43.10;;;20.68;26.24;102131.22;5225108;28;20071;-62
2022/04/17 10:03:16;;;;;;;2.58;1.60;;;20.10;43.60;;;20.96;26.06;102132.47;5225291;28;20079;-62
2022/04/17 10:05:48;;;;;;;1.50;1.33;;;20.20;43.40;;;20.96;25.23;102131.56;5226289;28;20328;-63
2022/04/17 10:08:20;;;;;;;2.95;1.20;;;20.30;42.40;;;20.91;26.20;102127.97;5223674;28;20048;-64
2022/04/17 10:10:52;;;;;;;2.45;1.38;;;20.30;43.30;;;21.11;25.88;102116.75;5226063;28;20067;-61
2022/04/17 10:13:25;;;;;;;1.88;1.23;;;20.50;43.20;;;21.32;25.65;102124.13;5226019;28;20053;-63
2022/04/17 10:16:00;;;;;;;2.78;1.30;;;20.60;43.10;;;21.44;24.56;102120.69;5225889;28;20055;-63
2022/04/17 10:18:39;;;;;;;2.03;1.50;;;20.60;42.00;;;21.33;25.11;102111.75;5226390;28;20045;-64
2022/04/17 10:21:13;;;;;;;1.48;1.10;;;20.60;42.50;;;21.13;25.48;102109.72;5230552;22;20527;-69
2022/04/17 10:23:46;;;;;;;3.13;1.48;;;20.50;42.60;;;21.18;26.24;102101.81;5216299;28;20041;-68
2022/04/17 10:26:20;;;;;;;2.45;1.15;;;20.60;43.60;;;21.40;26.15;102095.91;5215965;28;20044;-68
2022/04/17 10:28:58;;;;;;;1.88;1.30;;;20.70;43.50;;;21.56;25.29;102091.66;5216199;28;20511;-68
2022/04/17 10:31:46;;;;;;;2.88;1.40;;;20.90;42.80;;;21.34;24.91;102087.88;5215933;28;20450;-68
2022/04/17 10:35:04;;;;;;;1.73;1.20;;;20.70;41.90;;;21.27;25.08;102082.47;5217273;28;20050;-68
2022/04/17 10:38:22;;;;;;;1.90;0.90;;;20.70;42.30;;;21.37;25.52;102071.09;5214915;28;20383;-67
2022/04/17 10:40:59;;;;;;;2.35;1.10;;;20.70;42.70;;;21.44;24.83;102058.78;5214355;28;20090;-69
2022/04/17 10:43:37;;;;;;;2.05;1.35;;;20.70;42.20;;;21.31;25.15;102069.28;5215760;28;20115;-69
2022/04/17 10:46:14;;;;;;;2.67;1.30;;;20.70;42.30;;;21.30;24.74;102075.47;5215310;28;20057;-69
2022/04/17 10:48:51;;;;;;;2.78;1.20;;;20.70;41.70;;;21.08;25.25;102071.66;5215150;28;20481;-69
2022/04/17 10:51:27;;;;;;;2.05;1.23;;;20.50;42.30;;;21.18;24.75;102059.38;5212427;28;20051;-70
2022/04/17 10:54:04;;;;;;;2.47;1.10;;;20.50;41.80;;;21.29;24.60;102047.16;5210986;28;20063;-69
2022/04/17 10:56:38;;;;;;;1.88;1.00;;;20.60;41.80;;;21.43;24.56;102051.72;5203952;28;20099;-68